sensor_id;sensor_type;location;lat;lon;timestamp;temperature;humidity
19033;DHT22;9649;51.042;13.804;2023-04-15T00:04:44;7.80;99.90
19033;DHT22;9649;51.042;13.804;2023-04-15T00:09:47;7.70;99.90
19033;DHT22;9649;51.042;13.804;2023-04-15T00:14:51;7.60;99.90
19033;DHT22;9649;51.042;13.804;2023-04-15T00:19:53;7.70;99.90
19033;DHT22;9649;51.042;13.804;2023-04-15T00:24:56;7.70;99.90
19033;DHT22;9649;51.042;13.804;2023-04-15T00:30:00;7.60;99.90
19033;DHT22;9649;51.042;13.804;2023-04-15T00:35:05;7.60;99.90
19033;DHT22;9649;51.042;13.804;2023-04-15T00:40:11;7.60;99.90
19033;DHT22;9649;51.042;13.804;2023-04-15T00:45:16;7.60;99.90
19033;DHT22;9649;51.042;13.804;2023-04-15T00:50:18;7.60;99.90
19033;DHT22;9649;51.042;13.804;2023-04-15T00:55:21;7.60;99.90
19033;DHT22;9649;51.042;13.804;2023-04-15T01:00:25;7.70;99.90
19033;DHT22;9649;51.042;13.804;2023-04-15T01:05:29;7.60;99.90
19033;DHT22;9649;51.042;13.804;2023-04-15T01:10:32;7.70;99.90
19033;DHT22;9649;51.042;13.804;2023-04-15T01:15:36;7.60;99.90
19033;DHT22;9649;51.042;13.804;2023-04-15T01:20:39;7.70;99.90
19033;DHT22;9649;51.042;13.804;2023-04-15T01:25:44;7.70;99.90
19033;DHT22;9649;51.042;13.804;2023-04-15T01:30:48;7.70;99.90
19033;DHT22;9649;51.042;13.804;2023-04-15T01:35:50;7.70;99.90
19033;DHT22;9649;51.042;13.804;2023-04-15T01:40:54;7.60;99.90
19033;DHT22;9649;51.042;13.804;2023-04-15T01:45:57;7.60;99.90
19033;DHT22;9649;51.042;13.804;2023-04-15T01:51:00;7.60;99.90
19033;DHT22;9649;51.042;13.804;2023-04-15T01:56:05;7.60;99.90
19033;DHT22;9649;51.042;13.804;2023-04-15T02:01:08;7.70;99.90
19033;DHT22;9649;51.042;13.804;2023-04-15T02:06:12;7.70;99.90
19033;DHT22;9649;51.042;13.804;2023-04-15T02:11:16;7.60;99.90
19033;DHT22;9649;51.042;13.804;2023-04-15T02:16:19;7.60;99.90
19033;DHT22;9649;51.042;13.804;2023-04-15T02:21:22;7.50;99.90
19033;DHT22;9649;51.042;13.804;2023-04-15T02:26:26;7.50;99.90
19033;DHT22;9649;51.042;13.804;2023-04-15T02:31:32;7.60;99.90
19033;DHT22;9649;51.042;13.804;2023-04-15T02:36:38;7.60;99.90
19033;DHT22;9649;51.042;13.804;2023-04-15T02:41:42;7.60;99.90
19033;DHT22;9649;51.042;13.804;2023-04-15T02:46:48;7.60;99.90
19033;DHT22;9649;51.042;13.804;2023-04-15T02:51:53;7.70;99.90
19033;DHT22;9649;51.042;13.804;2023-04-15T02:56:57;7.60;99.90
19033;DHT22;9649;51.042;13.804;2023-04-15T03:02:00;7.60;99.90
19033;DHT22;9649;51.042;13.804;2023-04-15T03:07:03;7.60;99.90
19033;DHT22;9649;51.042;13.804;2023-04-15T03:12:09;7.70;99.90
19033;DHT22;9649;51.042;13.804;2023-04-15T03:17:12;7.70;99.90
19033;DHT22;9649;51.042;13.804;2023-04-15T03:22:15;7.60;99.90
19033;DHT22;9649;51.042;13.804;2023-04-15T03:27:19;7.70;99.90
19033;DHT22;9649;51.042;13.804;2023-04-15T03:32:22;7.70;99.90
19033;DHT22;9649;51.042;13.804;2023-04-15T03:37:25;7.70;99.90
19033;DHT22;9649;51.042;13.804;2023-04-15T03:42:29;7.80;99.90
19033;DHT22;9649;51.042;13.804;2023-04-15T03:47:32;7.70;99.90
19033;DHT22;9649;51.042;13.804;2023-04-15T03:52:35;7.70;99.90
19033;DHT22;9649;51.042;13.804;2023-04-15T03:57:39;7.70;99.90
19033;DHT22;9649;51.042;13.804;2023-04-15T04:02:41;7.70;99.90
19033;DHT22;9649;51.042;13.804;2023-04-15T04:07:46;7.60;99.90
19033;DHT22;9649;51.042;13.804;2023-04-15T04:12:50;7.70;99.90
19033;DHT22;9649;51.042;13.804;2023-04-15T04:17:53;7.70;99.90
19033;DHT22;9649;51.042;13.804;2023-04-15T04:22:56;7.70;99.90
19033;DHT22;9649;51.042;13.804;2023-04-15T04:28:00;7.80;99.90
19033;DHT22;9649;51.042;13.804;2023-04-15T04:33:03;7.80;99.90
19033;DHT22;9649;51.042;13.804;2023-04-15T04:38:06;7.70;99.90
19033;DHT22;9649;51.042;13.804;2023-04-15T04:43:11;7.70;99.90
19033;DHT22;9649;51.042;13.804;2023-04-15T04:48:15;7.70;99.90
19033;DHT22;9649;51.042;13.804;2023-04-15T04:53:18;7.70;99.90
19033;DHT22;9649;51.042;13.804;2023-04-15T04:58:22;7.70;99.90
19033;DHT22;9649;51.042;13.804;2023-04-15T05:03:25;7.80;99.90
19033;DHT22;9649;51.042;13.804;2023-04-15T05:08:32;7.80;99.90
19033;DHT22;9649;51.042;13.804;2023-04-15T05:13:36;7.90;99.90
19033;DHT22;9649;51.042;13.804;2023-04-15T05:18:39;7.90;99.90
19033;DHT22;9649;51.042;13.804;2023-04-15T05:23:44;7.90;99.90
19033;DHT22;9649;51.042;13.804;2023-04-15T05:28:48;8.00;99.90
19033;DHT22;9649;51.042;13.804;2023-04-15T05:33:51;8.00;99.90
19033;DHT22;9649;51.042;13.804;2023-04-15T05:38:54;8.10;99.90
19033;DHT22;9649;51.042;13.804;2023-04-15T05:43:59;8.10;99.90
19033;DHT22;9649;51.042;13.804;2023-04-15T05:49:02;8.10;99.90
19033;DHT22;9649;51.042;13.804;2023-04-15T05:54:05;8.20;99.90
19033;DHT22;9649;51.042;13.804;2023-04-15T05:59:09;8.20;99.90
19033;DHT22;9649;51.042;13.804;2023-04-15T06:04:15;8.20;99.90
19033;DHT22;9649;51.042;13.804;2023-04-15T06:09:27;8.20;99.90
19033;DHT22;9649;51.042;13.804;2023-04-15T06:14:32;8.20;99.90
19033;DHT22;9649;51.042;13.804;2023-04-15T06:19:38;8.20;99.90
19033;DHT22;9649;51.042;13.804;2023-04-15T06:24:59;8.20;99.90
19033;DHT22;9649;51.042;13.804;2023-04-15T06:30:17;8.30;99.90
19033;DHT22;9649;51.042;13.804;2023-04-15T06:35:22;8.40;99.90
19033;DHT22;9649;51.042;13.804;2023-04-15T06:40:28;8.50;99.90
19033;DHT22;9649;51.042;13.804;2023-04-15T06:45:43;8.60;99.90
19033;DHT22;9649;51.042;13.804;2023-04-15T06:51:34;8.60;99.90
19033;DHT22;9649;51.042;13.804;2023-04-15T07:15:34;8.90;99.90
19033;DHT22;9649;51.042;13.804;2023-04-15T07:20:56;9.00;99.90
19033;DHT22;9649;51.042;13.804;2023-04-15T07:26:10;9.00;99.90
19033;DHT22;9649;51.042;13.804;2023-04-15T07:31:56;9.10;99.90
19033;DHT22;9649;51.042;13.804;2023-04-15T07:37:33;9.10;99.90
19033;DHT22;9649;51.042;13.804;2023-04-15T07:42:47;9.30;99.90
19033;DHT22;9649;51.042;13.804;2023-04-15T08:00:25;10.50;99.90
19033;DHT22;9649;51.042;13.804;2023-04-15T08:06:01;11.00;99.90
19033;DHT22;9649;51.042;13.804;2023-04-15T08:12:16;11.60;99.90
19033;DHT22;9649;51.042;13.804;2023-04-15T08:17:53;11.60;99.90
19033;DHT22;9649;51.042;13.804;2023-04-15T08:23:26;11.60;99.90
19033;DHT22;9649;51.042;13.804;2023-04-15T08:29:06;11.70;99.90
19033;DHT22;9649;51.042;13.804;2023-04-15T08:53:26;10.80;99.90
19033;DHT22;9649;51.042;13.804;2023-04-15T08:58:37;9.90;99.90
19033;DHT22;9649;51.042;13.804;2023-04-15T09:03:41;9.70;99.90
19033;DHT22;9649;51.042;13.804;2023-04-15T09:08:44;9.50;99.90
19033;DHT22;9649;51.042;13.804;2023-04-15T09:13:50;9.90;99.90
19033;DHT22;9649;51.042;13.804;2023-04-15T09:18:56;10.20;99.90
19033;DHT22;9649;51.042;13.804;2023-04-15T09:24:00;10.30;99.90
19033;DHT22;9649;51.042;13.804;2023-04-15T09:29:06;10.40;99.90
19033;DHT22;9649;51.042;13.804;2023-04-15T09:34:09;10.40;93.90
19033;DHT22;9649;51.042;13.804;2023-04-15T09:39:13;10.60;1.00
19033;DHT22;9649;51.042;13.804;2023-04-15T09:44:24;10.90;1.00
19033;DHT22;9649;51.042;13.804;2023-04-15T09:49:27;10.60;1.00
19033;DHT22;9649;51.042;13.804;2023-04-15T09:54:34;10.40;1.00
19033;DHT22;9649;51.042;13.804;2023-04-15T09:59:38;10.70;1.00
19033;DHT22;9649;51.042;13.804;2023-04-15T10:04:41;10.90;1.00
19033;DHT22;9649;51.042;13.804;2023-04-15T10:09:45;10.80;1.00
19033;DHT22;9649;51.042;13.804;2023-04-15T10:14:54;10.40;1.00
19033;DHT22;9649;51.042;13.804;2023-04-15T10:19:59;10.10;1.00
19033;DHT22;9649;51.042;13.804;2023-04-15T10:25:04;10.00;1.00
19033;DHT22;9649;51.042;13.804;2023-04-15T10:30:10;10.20;1.00
19033;DHT22;9649;51.042;13.804;2023-04-15T10:35:13;10.10;1.00
19033;DHT22;9649;51.042;13.804;2023-04-15T10:40:27;10.30;1.00
19033;DHT22;9649;51.042;13.804;2023-04-15T10:45:34;10.40;1.00
19033;DHT22;9649;51.042;13.804;2023-04-15T10:50:39;10.80;1.00
19033;DHT22;9649;51.042;13.804;2023-04-15T10:55:41;10.80;1.00
19033;DHT22;9649;51.042;13.804;2023-04-15T11:00:50;11.10;99.90
19033;DHT22;9649;51.042;13.804;2023-04-15T11:05:53;11.60;99.90
19033;DHT22;9649;51.042;13.804;2023-04-15T11:10:57;11.90;99.90
19033;DHT22;9649;51.042;13.804;2023-04-15T11:16:01;11.20;99.90
19033;DHT22;9649;51.042;13.804;2023-04-15T11:21:06;11.10;99.90
19033;DHT22;9649;51.042;13.804;2023-04-15T11:26:10;11.00;1.00
19033;DHT22;9649;51.042;13.804;2023-04-15T11:31:15;11.00;99.90
19033;DHT22;9649;51.042;13.804;2023-04-15T11:36:19;11.10;65.10
19033;DHT22;9649;51.042;13.804;2023-04-15T11:41:22;10.90;99.90
19033;DHT22;9649;51.042;13.804;2023-04-15T11:46:31;10.90;1.00
19033;DHT22;9649;51.042;13.804;2023-04-15T11:51:34;11.00;1.00
19033;DHT22;9649;51.042;13.804;2023-04-15T11:56:37;11.50;1.00
19033;DHT22;9649;51.042;13.804;2023-04-15T12:01:41;11.40;1.00
19033;DHT22;9649;51.042;13.804;2023-04-15T12:06:44;11.30;99.90
19033;DHT22;9649;51.042;13.804;2023-04-15T12:11:48;11.30;1.00
19033;DHT22;9649;51.042;13.804;2023-04-15T12:16:56;11.30;99.90
19033;DHT22;9649;51.042;13.804;2023-04-15T12:22:04;11.40;1.00
19033;DHT22;9649;51.042;13.804;2023-04-15T12:27:13;11.60;99.90
19033;DHT22;9649;51.042;13.804;2023-04-15T12:32:17;12.10;1.00
19033;DHT22;9649;51.042;13.804;2023-04-15T12:37:22;12.00;1.00
19033;DHT22;9649;51.042;13.804;2023-04-15T12:42:25;11.90;99.90
19033;DHT22;9649;51.042;13.804;2023-04-15T12:47:31;11.70;1.00
19033;DHT22;9649;51.042;13.804;2023-04-15T12:52:50;12.00;1.00
19033;DHT22;9649;51.042;13.804;2023-04-15T12:57:53;12.30;1.00
19033;DHT22;9649;51.042;13.804;2023-04-15T13:02:57;12.20;1.00
19033;DHT22;9649;51.042;13.804;2023-04-15T13:07:59;12.10;1.00
19033;DHT22;9649;51.042;13.804;2023-04-15T13:13:03;12.10;99.90
19033;DHT22;9649;51.042;13.804;2023-04-15T13:18:07;12.50;1.00
19033;DHT22;9649;51.042;13.804;2023-04-15T13:23:10;12.90;99.90
19033;DHT22;9649;51.042;13.804;2023-04-15T13:28:18;13.60;1.00
19033;DHT22;9649;51.042;13.804;2023-04-15T13:33:23;13.40;1.00
19033;DHT22;9649;51.042;13.804;2023-04-15T13:38:25;13.50;1.00
19033;DHT22;9649;51.042;13.804;2023-04-15T13:43:31;13.70;1.00
19033;DHT22;9649;51.042;13.804;2023-04-15T13:48:38;14.30;99.90
19033;DHT22;9649;51.042;13.804;2023-04-15T13:53:41;14.50;99.90
19033;DHT22;9649;51.042;13.804;2023-04-15T13:58:46;14.10;1.00
19033;DHT22;9649;51.042;13.804;2023-04-15T14:03:52;13.50;99.90
19033;DHT22;9649;51.042;13.804;2023-04-15T14:08:55;13.70;99.90
19033;DHT22;9649;51.042;13.804;2023-04-15T14:14:01;14.20;99.90
19033;DHT22;9649;51.042;13.804;2023-04-15T14:19:05;14.60;69.30
19033;DHT22;9649;51.042;13.804;2023-04-15T14:24:09;15.00;1.00
19033;DHT22;9649;51.042;13.804;2023-04-15T14:29:13;15.30;1.00
19033;DHT22;9649;51.042;13.804;2023-04-15T14:34:18;15.30;1.00
19033;DHT22;9649;51.042;13.804;2023-04-15T14:39:22;15.30;1.00
19033;DHT22;9649;51.042;13.804;2023-04-15T14:44:25;15.30;99.90
19033;DHT22;9649;51.042;13.804;2023-04-15T14:49:29;15.50;1.00
19033;DHT22;9649;51.042;13.804;2023-04-15T15:19:04;17.10;44.00
19033;DHT22;9649;51.042;13.804;2023-04-15T15:50:33;16.60;99.90
19033;DHT22;9649;51.042;13.804;2023-04-15T16:09:01;14.70;1.00
19033;DHT22;9649;51.042;13.804;2023-04-15T16:21:15;13.60;1.00
19033;DHT22;9649;51.042;13.804;2023-04-15T16:27:04;13.70;1.00
19033;DHT22;9649;51.042;13.804;2023-04-15T16:38:46;13.60;99.90
19033;DHT22;9649;51.042;13.804;2023-04-15T16:44:33;13.30;1.00
19033;DHT22;9649;51.042;13.804;2023-04-15T16:50:07;13.10;99.90
19033;DHT22;9649;51.042;13.804;2023-04-15T17:01:56;12.60;1.00
19033;DHT22;9649;51.042;13.804;2023-04-15T17:07:30;12.50;1.00
19033;DHT22;9649;51.042;13.804;2023-04-15T17:12:32;12.30;1.00
19033;DHT22;9649;51.042;13.804;2023-04-15T17:17:40;12.10;99.90
19033;DHT22;9649;51.042;13.804;2023-04-15T17:22:47;11.90;1.00
19033;DHT22;9649;51.042;13.804;2023-04-15T17:27:49;11.70;22.30
19033;DHT22;9649;51.042;13.804;2023-04-15T17:32:56;11.60;1.00
19033;DHT22;9649;51.042;13.804;2023-04-15T17:38:02;11.40;82.50
19033;DHT22;9649;51.042;13.804;2023-04-15T17:43:09;11.30;15.20
19033;DHT22;9649;51.042;13.804;2023-04-15T17:48:17;11.10;99.90
19033;DHT22;9649;51.042;13.804;2023-04-15T17:53:22;11.00;1.00
19033;DHT22;9649;51.042;13.804;2023-04-15T17:58:26;11.00;99.90
19033;DHT22;9649;51.042;13.804;2023-04-15T18:03:30;11.00;1.00
19033;DHT22;9649;51.042;13.804;2023-04-15T18:08:34;11.00;1.00
19033;DHT22;9649;51.042;13.804;2023-04-15T18:13:37;10.90;1.00
19033;DHT22;9649;51.042;13.804;2023-04-15T18:18:41;10.80;1.00
19033;DHT22;9649;51.042;13.804;2023-04-15T18:23:44;10.80;1.00
19033;DHT22;9649;51.042;13.804;2023-04-15T18:28:49;10.70;1.00
19033;DHT22;9649;51.042;13.804;2023-04-15T18:33:54;10.50;1.00
19033;DHT22;9649;51.042;13.804;2023-04-15T18:38:57;10.40;1.00
19033;DHT22;9649;51.042;13.804;2023-04-15T18:43:59;10.20;1.00
19033;DHT22;9649;51.042;13.804;2023-04-15T18:49:04;10.00;1.00
19033;DHT22;9649;51.042;13.804;2023-04-15T18:54:07;9.90;1.00
19033;DHT22;9649;51.042;13.804;2023-04-15T18:59:13;9.80;3.70
19033;DHT22;9649;51.042;13.804;2023-04-15T19:04:32;9.60;43.40
19033;DHT22;9649;51.042;13.804;2023-04-15T19:09:38;9.50;99.90
19033;DHT22;9649;51.042;13.804;2023-04-15T19:14:43;9.50;96.90
19033;DHT22;9649;51.042;13.804;2023-04-15T19:19:47;9.30;99.90
19033;DHT22;9649;51.042;13.804;2023-04-15T19:24:51;9.20;99.90
19033;DHT22;9649;51.042;13.804;2023-04-15T19:29:56;9.30;99.90
19033;DHT22;9649;51.042;13.804;2023-04-15T19:35:10;9.30;40.90
19033;DHT22;9649;51.042;13.804;2023-04-15T19:40:16;9.20;41.40
19033;DHT22;9649;51.042;13.804;2023-04-15T19:45:33;9.00;99.90
19033;DHT22;9649;51.042;13.804;2023-04-15T19:57:47;8.70;99.90
19033;DHT22;9649;51.042;13.804;2023-04-15T20:03:04;8.60;99.90
19033;DHT22;9649;51.042;13.804;2023-04-15T20:08:19;8.60;99.90
19033;DHT22;9649;51.042;13.804;2023-04-15T20:19:17;8.40;99.90
19033;DHT22;9649;51.042;13.804;2023-04-15T20:24:48;8.30;99.90
19033;DHT22;9649;51.042;13.804;2023-04-15T20:30:06;8.20;99.90
19033;DHT22;9649;51.042;13.804;2023-04-15T20:35:36;8.20;99.90
19033;DHT22;9649;51.042;13.804;2023-04-15T20:41:03;8.10;99.90
19033;DHT22;9649;51.042;13.804;2023-04-15T20:52:54;8.10;99.90
19033;DHT22;9649;51.042;13.804;2023-04-15T20:58:21;8.30;99.90
19033;DHT22;9649;51.042;13.804;2023-04-15T21:03:42;8.50;99.90
19033;DHT22;9649;51.042;13.804;2023-04-15T21:08:50;8.30;99.90
19033;DHT22;9649;51.042;13.804;2023-04-15T21:14:37;8.10;99.90
19033;DHT22;9649;51.042;13.804;2023-04-15T21:20:12;8.00;99.90
19033;DHT22;9649;51.042;13.804;2023-04-15T21:25:25;7.90;99.90
19033;DHT22;9649;51.042;13.804;2023-04-15T21:30:28;7.90;99.90
19033;DHT22;9649;51.042;13.804;2023-04-15T21:35:30;7.80;99.90
19033;DHT22;9649;51.042;13.804;2023-04-15T21:40:35;7.80;99.90
19033;DHT22;9649;51.042;13.804;2023-04-15T21:45:40;7.80;99.90
19033;DHT22;9649;51.042;13.804;2023-04-15T21:51:04;7.90;99.90
19033;DHT22;9649;51.042;13.804;2023-04-15T21:56:08;7.90;99.90
19033;DHT22;9649;51.042;13.804;2023-04-15T22:01:11;8.00;99.90
19033;DHT22;9649;51.042;13.804;2023-04-15T22:06:14;8.00;99.90
19033;DHT22;9649;51.042;13.804;2023-04-15T22:11:19;7.90;99.90
19033;DHT22;9649;51.042;13.804;2023-04-15T22:16:23;7.80;99.90
19033;DHT22;9649;51.042;13.804;2023-04-15T22:21:26;7.80;99.90
19033;DHT22;9649;51.042;13.804;2023-04-15T22:26:30;7.70;99.90
19033;DHT22;9649;51.042;13.804;2023-04-15T22:31:33;7.90;99.90
19033;DHT22;9649;51.042;13.804;2023-04-15T22:36:36;8.00;99.90
19033;DHT22;9649;51.042;13.804;2023-04-15T22:41:40;8.10;99.90
19033;DHT22;9649;51.042;13.804;2023-04-15T22:46:43;8.10;99.90
19033;DHT22;9649;51.042;13.804;2023-04-15T22:51:46;8.20;99.90
19033;DHT22;9649;51.042;13.804;2023-04-15T22:56:50;8.20;99.90
19033;DHT22;9649;51.042;13.804;2023-04-15T23:01:53;8.10;99.90
19033;DHT22;9649;51.042;13.804;2023-04-15T23:06:56;8.10;99.90
19033;DHT22;9649;51.042;13.804;2023-04-15T23:12:01;8.10;99.90
19033;DHT22;9649;51.042;13.804;2023-04-15T23:17:04;8.00;99.90
19033;DHT22;9649;51.042;13.804;2023-04-15T23:22:06;8.10;99.90
19033;DHT22;9649;51.042;13.804;2023-04-15T23:27:12;8.20;99.90
19033;DHT22;9649;51.042;13.804;2023-04-15T23:32:15;8.10;99.90
19033;DHT22;9649;51.042;13.804;2023-04-15T23:37:17;8.00;99.90
19033;DHT22;9649;51.042;13.804;2023-04-15T23:42:21;8.00;99.90
19033;DHT22;9649;51.042;13.804;2023-04-15T23:47:24;7.90;99.90
19033;DHT22;9649;51.042;13.804;2023-04-15T23:52:27;7.90;99.90
19033;DHT22;9649;51.042;13.804;2023-04-15T23:57:31;8.00;99.90
